Time;durP1;ratioP1;P1;durP2;ratioP2;P2;SDS_P1;SDS_P2;PMS_P1;PMS_P2;Temp;Humidity;BMP_temperature;BMP_pressure;BME280_temperature;BME280_humidity;BME280_pressure;Samples;Min_cycle;Max_cycle;Signal;HPM_P1;HPM_P2
2023/07/13 04:02:17;;;;;;;0.60;0.20;;;;;;;;;;5288939;23;20491;-72
2023/07/13 04:04:45;;;;;;;0.60;0.10;;;21.70;1.00;;;;;;5013914;28;20445;-72
2023/07/13 04:07:14;;;;;;;1.23;1.13;;;;;;;;;;5014414;28;20865;-72
2023/07/13 04:09:42;;;;;;;0.70;0.20;;;21.40;1.00;;;;;;5014110;28;20520;-72
2023/07/13 04:12:10;;;;;;;0.60;0.20;;;21.30;1.00;;;;;;5013687;28;20461;-74
2023/07/13 04:14:38;;;;;;;0.70;0.40;;;21.20;1.00;;;;;;5014011;28;20483;-72
2023/07/13 04:17:06;;;;;;;0.60;0.20;;;21.20;1.00;;;;;;5013248;28;20479;-72
2023/07/13 04:19:36;;;;;;;0.70;0.20;;;21.20;1.00;;;;;;5013170;28;20445;-71
2023/07/13 04:22:04;;;;;;;0.60;0.10;;;;;;;;;;5012901;28;20488;-73
2023/07/13 04:24:32;;;;;;;0.60;0.10;;;;;;;;;;5012949;28;20486;-72
2023/07/13 04:27:01;;;;;;;0.60;0.20;;;;;;;;;;5012786;28;20453;-73
2023/07/13 04:29:29;;;;;;;0.60;0.10;;;21.40;1.00;;;;;;5012959;28;20507;-73
2023/07/13 04:31:57;;;;;;;0.60;0.20;;;21.50;1.00;;;;;;4999662;28;20488;-72
2023/07/13 04:34:26;;;;;;;0.60;0.13;;;;;;;;;;5002770;28;20452;-73
2023/07/13 04:36:55;;;;;;;0.60;0.10;;;21.60;1.00;;;;;;5011507;28;20476;-72
2023/07/13 04:39:23;;;;;;;0.60;0.10;;;21.70;1.00;;;;;;4998656;28;20910;-73
2023/07/13 04:41:51;;;;;;;0.70;0.20;;;21.70;1.00;;;;;;4993935;28;20564;-72
2023/07/13 04:44:19;;;;;;;0.70;0.20;;;;;;;;;;4993063;28;20443;-72
2023/07/13 04:46:47;;;;;;;0.60;0.20;;;21.70;1.00;;;;;;4989024;28;20550;-72
2023/07/13 04:49:15;;;;;;;0.70;0.20;;;;;;;;;;4993490;28;20493;-73
2023/07/13 04:51:43;;;;;;;0.70;0.20;;;21.80;1.00;;;;;;4993250;28;20571;-73
2023/07/13 04:54:12;;;;;;;2.20;0.93;;;21.80;1.00;;;;;;4993032;28;20447;-72
2023/07/13 04:56:40;;;;;;;0.70;0.10;;;21.70;1.00;;;;;;4991539;28;20486;-73
2023/07/13 04:59:08;;;;;;;0.67;0.17;;;21.80;1.00;;;;;;5007736;28;20461;-73
2023/07/13 05:01:35;;;;;;;0.60;0.20;;;21.80;1.00;;;;;;4987454;28;20561;-73
2023/07/13 05:04:04;;;;;;;0.60;0.20;;;21.80;1.00;;;;;;5005691;28;20496;-73
2023/07/13 05:06:31;;;;;;;0.60;0.20;;;21.70;1.00;;;;;;5002765;28;20446;-74
2023/07/13 05:08:59;;;;;;;0.70;0.20;;;21.60;1.00;;;;;;5010254;28;20481;-73
2023/07/13 05:11:29;;;;;;;0.60;0.20;;;;;;;;;;4998960;28;20987;-73
2023/07/13 05:13:57;;;;;;;0.90;0.53;;;21.60;1.00;;;;;;4977658;28;20885;-73
2023/07/13 05:16:25;;;;;;;0.60;0.20;;;21.50;1.00;;;;;;4972497;28;20448;-74
2023/07/13 05:18:53;;;;;;;0.67;0.20;;;21.50;1.00;;;;;;4972467;28;21040;-74
2023/07/13 05:21:21;;;;;;;0.70;0.20;;;21.40;1.00;;;;;;4973415;28;20507;-73
2023/07/13 05:23:49;;;;;;;0.60;0.17;;;21.40;1.00;;;;;;4973158;28;20448;-72
2023/07/13 05:26:17;;;;;;;0.70;0.30;;;21.40;1.00;;;;;;4973410;28;20474;-75
2023/07/13 05:28:46;;;;;;;1.30;0.40;;;21.10;1.00;;;;;;4987326;28;20462;-74
2023/07/13 05:31:15;;;;;;;0.60;0.10;;;21.00;1.00;;;;;;5004260;28;20492;-74
2023/07/13 05:33:43;;;;;;;0.60;0.20;;;21.00;1.00;;;;;;5012319;28;21031;-74
2023/07/13 05:36:11;;;;;;;0.60;0.10;;;21.00;1.00;;;;;;5012551;28;20445;-74
2023/07/13 05:38:39;;;;;;;0.60;0.20;;;21.10;1.00;;;;;;5013487;28;20480;-74
2023/07/13 05:41:07;;;;;;;0.70;0.30;;;21.20;1.00;;;;;;5015967;28;20551;-74
2023/07/13 05:43:36;;;;;;;0.60;0.10;;;21.30;1.00;;;;;;5016181;28;20503;-74
2023/07/13 05:46:05;;;;;;;0.60;0.10;;;21.40;1.00;;;;;;4992079;28;20456;-74
2023/07/13 05:48:33;;;;;;;0.60;0.10;;;21.40;1.00;;;;;;4977539;28;20454;-74
2023/07/13 05:51:02;;;;;;;0.60;0.17;;;21.30;1.00;;;;;;4976715;28;21070;-72
2023/07/13 05:53:30;;;;;;;0.97;0.73;;;21.30;1.00;;;;;;4989020;28;20460;-72
2023/07/13 05:55:58;;;;;;;0.80;0.47;;;21.30;1.00;;;;;;4990510;28;20522;-77
2023/07/13 05:58:28;;;;;;;0.60;0.20;;;21.30;1.00;;;;;;4997146;28;20469;-77
2023/07/13 06:01:01;;;;;;;2.40;0.30;;;21.20;1.00;;;;;;5000283;28;20573;-77
2023/07/13 06:03:34;;;;;;;0.60;0.20;;;21.00;1.00;;;;;;4996963;28;20451;-75
2023/07/13 06:06:02;;;;;;;0.60;0.20;;;21.00;1.00;;;;;;4996178;28;20595;-75
2023/07/13 06:08:30;;;;;;;0.60;0.10;;;21.00;1.00;;;;;;4978836;28;20542;-76
2023/07/13 06:11:03;;;;;;;0.60;0.10;;;21.00;1.00;;;;;;4992320;28;20484;-74
2023/07/13 06:13:33;;;;;;;0.60;0.20;;;21.10;1.00;;;;;;5015685;28;20482;-75
2023/07/13 06:16:04;;;;;;;4.83;0.33;;;21.00;1.00;;;;;;5006385;28;20941;-73
2023/07/13 06:18:32;;;;;;;0.60;0.20;;;21.00;1.00;;;;;;4996304;28;20451;-75
2023/07/13 06:21:01;;;;;;;0.83;0.80;;;20.90;1.00;;;;;;4996454;28;20869;-74
2023/07/13 06:23:30;;;;;;;0.60;0.10;;;;;;;;;;4985633;28;20544;-75
2023/07/13 06:25:58;;;;;;;0.60;0.10;;;;;;;;;;4987690;28;20545;-75
2023/07/13 06:28:26;;;;;;;0.60;0.10;;;;;;;;;;4999959;28;20551;-74
2023/07/13 06:30:54;;;;;;;0.60;0.20;;;;;;;;;;4999045;28;20574;-74
2023/07/13 06:33:22;;;;;;;0.60;0.10;;;21.40;1.00;;;;;;4998739;28;20452;-74
2023/07/13 06:35:50;;;;;;;0.60;0.10;;;21.40;1.00;;;;;;4996672;28;20526;-73
2023/07/13 06:38:19;;;;;;;0.60;0.10;;;21.50;1.00;;;;;;4987765;28;20545;-75
2023/07/13 06:40:47;;;;;;;1.53;0.20;;;21.50;1.00;;;;;;4980108;28;21029;-74
2023/07/13 06:43:15;;;;;;;0.60;0.20;;;21.50;1.00;;;;;;4979597;28;20446;-72
2023/07/13 06:45:47;;;;;;;0.60;0.20;;;21.60;1.00;;;;;;4977522;28;20574;-75
2023/07/13 06:48:15;;;;;;;0.60;0.10;;;21.70;1.00;;;;;;4978960;28;20498;-73
2023/07/13 06:50:43;;;;;;;0.80;0.20;;;21.70;1.00;;;;;;4976691;28;20510;-75
2023/07/13 06:53:12;;;;;;;0.60;0.20;;;21.80;1.00;;;;;;4976749;28;20543;-73
2023/07/13 06:55:44;;;;;;;0.60;0.13;;;21.90;1.00;;;;;;4976196;28;20816;-73
2023/07/13 06:58:12;;;;;;;0.60;0.10;;;22.00;1.00;;;;;;4992862;28;20527;-74
2023/07/13 07:00:40;;;;;;;1.13;0.20;;;21.90;1.00;;;;;;4994174;28;20449;-74
2023/07/13 07:03:08;;;;;;;0.60;0.20;;;21.90;1.00;;;;;;4983576;28;20463;-74
2023/07/13 07:05:36;;;;;;;0.67;0.20;;;;;;;;;;5008471;28;20530;-74
2023/07/13 07:08:05;;;;;;;0.70;0.20;;;22.00;1.00;;;;;;5000022;28;20447;-73
2023/07/13 07:10:34;;;;;;;0.67;0.20;;;22.10;1.00;;;;;;4996597;28;20563;-74
2023/07/13 07:13:04;;;;;;;0.80;0.60;;;22.10;1.00;;;;;;4995132;28;20513;-74
2023/07/13 07:15:32;;;;;;;1.77;0.63;;;22.00;1.00;;;;;;4997503;28;20452;-73
2023/07/13 07:18:00;;;;;;;0.60;0.20;;;21.90;1.00;;;;;;4996353;28;20970;-74
2023/07/13 07:20:30;;;;;;;0.70;0.20;;;21.80;1.00;;;;;;4991309;28;20515;-75
2023/07/13 07:22:58;;;;;;;0.80;0.30;;;21.80;1.00;;;;;;5013949;28;20438;-74
2023/07/13 07:25:26;;;;;;;0.60;0.20;;;;;;;;;;5015020;28;20484;-74
2023/07/13 07:27:55;;;;;;;0.60;0.10;;;;;;;;;;5014195;28;20463;-74
2023/07/13 07:30:27;;;;;;;1.27;0.50;;;21.70;1.00;;;;;;5014677;28;20514;-74
2023/07/13 07:32:58;;;;;;;0.60;0.10;;;;;;;;;;4975538;28;20526;-74
2023/07/13 07:35:29;;;;;;;0.60;0.10;;;21.70;1.00;;;;;;4977667;28;20438;-74
2023/07/13 07:38:02;;;;;;;0.60;0.10;;;;;;;;;;4974916;28;20452;-74
2023/07/13 07:40:31;;;;;;;0.60;0.10;;;22.00;1.00;;;;;;4974553;28;20458;-74
2023/07/13 07:43:01;;;;;;;0.60;0.10;;;22.10;1.00;;;;;;4980839;28;20486;-75
2023/07/13 07:45:30;;;;;;;0.67;0.20;;;22.20;1.00;;;;;;4993703;28;20512;-74
2023/07/13 07:47:59;;;;;;;0.60;0.20;;;22.30;1.00;;;;;;4993652;28;20473;-74
2023/07/13 07:50:27;;;;;;;0.70;0.17;;;22.40;1.00;;;;;;4993581;28;21069;-73
2023/07/13 07:52:56;;;;;;;1.40;0.40;;;22.40;1.00;;;;;;4993841;28;20493;-73
2023/07/13 07:55:26;;;;;;;0.70;0.17;;;22.50;1.00;;;;;;4986911;28;20463;-73
2023/07/13 07:57:58;;;;;;;0.80;0.20;;;22.50;1.00;;;;;;4974165;28;20555;-72
2023/07/13 08:00:30;;;;;;;0.60;0.10;;;;;;;;;;4974095;28;20526;-73
2023/07/13 08:03:13;;;;;;;0.70;0.10;;;22.60;1.00;;;;;;4983090;28;20457;-73
2023/07/13 08:05:44;;;;;;;0.70;0.20;;;22.70;1.00;;;;;;4981992;28;21282;-74
2023/07/13 08:08:32;;;;;;;0.80;0.30;;;22.80;1.00;;;;;;4980647;28;20434;-73
2023/07/13 08:11:03;;;;;;;0.70;0.20;;;22.90;1.00;;;;;;4997445;28;20510;-71
2023/07/13 08:13:51;;;;;;;0.70;0.20;;;22.60;1.00;;;;;;4992968;28;20468;-71
2023/07/13 08:16:23;;;;;;;0.70;0.30;;;22.50;1.00;;;;;;5001009;28;20444;-71
2023/07/13 08:18:52;;;;;;;0.60;0.10;;;22.50;1.00;;;;;;5000768;28;20848;-70
2023/07/13 08:21:21;;;;;;;0.60;0.20;;;;;;;;;;4992601;28;20545;-71
2023/07/13 08:23:49;;;;;;;0.60;0.20;;;;;;;;;;4973760;28;20461;-71
2023/07/13 08:26:17;;;;;;;0.70;0.10;;;22.90;1.00;;;;;;4984331;28;20539;-71
2023/07/13 08:28:45;;;;;;;0.70;0.20;;;22.90;1.00;;;;;;4981527;28;20540;-71
2023/07/13 08:31:14;;;;;;;0.70;0.17;;;;;;;;;;4983920;28;20487;-71
2023/07/13 08:33:43;;;;;;;1.00;0.50;;;;;;;;;;4987267;28;20480;-71
2023/07/13 08:36:12;;;;;;;0.70;0.20;;;23.00;1.00;;;;;;4983980;28;20438;-71
2023/07/13 08:38:40;;;;;;;1.37;0.57;;;23.10;1.00;;;;;;4982718;28;20486;-71
2023/07/13 08:41:14;;;;;;;0.70;0.10;;;23.10;1.00;;;;;;4987597;28;20459;-72
2023/07/13 08:43:44;;;;;;;2.70;0.60;;;23.00;1.00;;;;;;4989654;28;20552;-72
2023/07/13 08:46:17;;;;;;;0.90;0.30;;;23.00;1.00;;;;;;4997478;28;20932;-72
2023/07/13 08:48:49;;;;;;;0.90;0.77;;;23.00;1.00;;;;;;5012500;28;20959;-73
2023/07/13 08:51:29;;;;;;;0.70;0.17;;;23.00;1.00;;;;;;4978879;28;20522;-72
2023/07/13 08:54:01;;;;;;;0.70;0.20;;;23.10;1.00;;;;;;4973216;28;20491;-73
2023/07/13 08:56:30;;;;;;;0.70;0.20;;;23.10;1.00;;;;;;4973837;28;20940;-72
2023/07/13 08:59:01;;;;;;;0.70;0.10;;;23.20;1.00;;;;;;4973921;28;20484;-72
2023/07/13 09:01:33;;;;;;;0.70;0.20;;;23.30;1.00;;;;;;4973772;28;20532;-72
2023/07/13 09:04:08;;;;;;;0.70;0.20;;;23.30;1.00;;;;;;4973618;28;20450;-73
2023/07/13 09:06:50;;;;;;;0.80;0.40;;;23.30;1.00;;;;;;4973935;28;20454;-73
2023/07/13 09:09:28;;;;;;;1.20;0.40;;;23.10;1.00;;;;;;4983656;28;20876;-73
2023/07/13 09:12:03;;;;;;;0.70;0.20;;;23.00;1.00;;;;;;5004547;28;20521;-73
2023/07/13 09:14:42;;;;;;;1.13;0.60;;;23.00;1.00;;;;;;5016004;28;20436;-73
2023/07/13 09:17:17;;;;;;;0.70;0.27;;;23.10;1.00;;;;;;5017281;28;20543;-72
2023/07/13 09:19:51;;;;;;;0.70;0.20;;;23.10;1.00;;;;;;4990639;28;20455;-72
2023/07/13 09:22:23;;;;;;;0.70;0.20;;;23.10;1.00;;;;;;4985174;28;20469;-73
2023/07/13 09:24:58;;;;;;;0.90;0.30;;;23.30;1.00;;;;;;4988516;28;20502;-72
2023/07/13 09:27:31;;;;;;;1.30;0.50;;;23.20;1.00;;;;;;4990035;28;20447;-73
2023/07/13 09:30:13;;;;;;;1.43;0.40;;;23.10;1.00;;;;;;4989195;28;20444;-70
2023/07/13 09:32:44;;;;;;;0.70;0.10;;;23.30;1.00;;;;;;4980173;28;20481;-74
2023/07/13 09:35:13;;;;;;;0.70;0.20;;;23.60;1.00;;;;;;4977882;28;20451;-74
2023/07/13 09:37:45;;;;;;;0.70;0.10;;;23.70;1.00;;;;;;4977657;28;20905;-73
2023/07/13 09:40:26;;;;;;;0.70;0.10;;;23.90;1.00;;;;;;4977531;28;20539;-72
2023/07/13 09:42:55;;;;;;;0.70;0.20;;;24.00;1.00;;;;;;4987634;28;20471;-73
2023/07/13 09:45:29;;;;;;;1.67;0.37;;;24.00;1.00;;;;;;4978904;28;20528;-73
2023/07/13 09:48:08;;;;;;;1.97;0.87;;;23.80;1.00;;;;;;4977139;28;20453;-74
2023/07/13 09:50:36;;;;;;;0.70;0.10;;;23.80;1.00;;;;;;4976861;28;20774;-73
2023/07/13 09:53:13;;;;;;;1.00;0.47;;;23.70;1.00;;;;;;4987510;28;20507;-73
2023/07/13 09:55:42;;;;;;;0.70;0.20;;;23.60;1.00;;;;;;4988033;28;20545;-75
2023/07/13 09:58:13;;;;;;;0.70;0.20;;;23.60;1.00;;;;;;4989951;28;20479;-74
2023/07/13 10:00:43;;;;;;;1.10;0.40;;;23.70;1.00;;;;;;4988493;28;20560;-74
2023/07/13 10:03:20;;;;;;;0.70;0.20;;;23.70;1.00;;;;;;4983524;28;20821;-73
2023/07/13 10:05:50;;;;;;;0.90;0.60;;;23.90;1.00;;;;;;4998987;28;20451;-72
2023/07/13 10:08:24;;;;;;;0.70;0.10;;;24.10;1.00;;;;;;5000688;28;20447;-72
2023/07/13 10:10:59;;;;;;;0.70;0.20;;;24.20;1.00;;;;;;5004974;28;21149;-73
2023/07/13 10:13:34;;;;;;;0.70;0.20;;;24.20;1.00;;;;;;5009129;28;20567;-72
2023/07/13 10:16:03;;;;;;;0.70;0.20;;;;;;;;;;4996980;28;21013;-73
2023/07/13 10:18:41;;;;;;;0.70;0.20;;;24.30;1.00;;;;;;4996674;28;20447;-74
2023/07/13 10:21:16;;;;;;;0.70;0.10;;;24.30;1.00;;;;;;4994808;28;20470;-73
2023/07/13 10:23:53;;;;;;;0.70;0.20;;;24.40;1.00;;;;;;4985508;28;21029;-73
2023/07/13 10:26:25;;;;;;;0.70;0.20;;;24.20;1.00;;;;;;4987746;28;20435;-73
2023/07/13 10:28:57;;;;;;;0.70;0.20;;;24.20;1.00;;;;;;4985233;28;20521;-75
2023/07/13 10:31:25;;;;;;;0.70;0.10;;;;;;;;;;4984864;28;20488;-74
2023/07/13 10:33:54;;;;;;;0.83;0.20;;;;;;;;;;4983582;28;20455;-73
2023/07/13 10:36:34;;;;;;;0.70;0.30;;;24.00;1.00;;;;;;4997112;28;20555;-72
2023/07/13 10:39:06;;;;;;;0.70;0.30;;;24.00;1.00;;;;;;5011294;28;20532;-73
2023/07/13 10:41:39;;;;;;;0.70;0.10;;;24.00;1.00;;;;;;5020830;28;20471;-73
2023/07/13 10:44:16;;;;;;;0.97;0.40;;;24.20;1.00;;;;;;5010864;28;20491;-73
2023/07/13 10:46:45;;;;;;;0.70;0.20;;;24.10;1.00;;;;;;4980770;28;20554;-74
2023/07/13 10:49:14;;;;;;;0.70;0.13;;;24.00;1.00;;;;;;4996087;28;20452;-73
2023/07/13 10:51:42;;;;;;;0.70;0.20;;;24.10;1.00;;;;;;5003360;28;20467;-74
2023/07/13 10:54:18;;;;;;;0.70;0.10;;;24.00;1.00;;;;;;4995569;28;20492;-74
2023/07/13 10:56:50;;;;;;;0.70;0.20;;;24.10;1.00;;;;;;4996659;28;20481;-73
2023/07/13 10:59:26;;;;;;;0.70;0.10;;;24.00;1.00;;;;;;5001379;28;20451;-73
2023/07/13 11:01:57;;;;;;;0.70;0.20;;;24.10;1.00;;;;;;5002624;28;20467;-74
2023/07/13 11:04:29;;;;;;;1.33;0.30;;;24.20;1.00;;;;;;4976797;28;20464;-73
2023/07/13 11:07:00;;;;;;;0.70;0.10;;;24.30;1.00;;;;;;4975854;28;20503;-73
2023/07/13 11:09:39;;;;;;;0.80;0.33;;;24.50;1.00;;;;;;4988638;28;20487;-75
2023/07/13 11:12:14;;;;;;;0.70;0.30;;;24.60;1.00;;;;;;5001176;28;20510;-74
2023/07/13 11:15:06;;;;;;;0.70;0.20;;;24.40;1.00;;;;;;5003659;28;20468;-75
2023/07/13 11:17:45;;;;;;;0.70;0.10;;;24.50;1.00;;;;;;5005088;28;20817;-74
2023/07/13 11:20:25;;;;;;;0.70;0.20;;;;;;;;;;4999314;28;20451;-75
2023/07/13 11:23:08;;;;;;;0.73;0.27;;;24.50;1.00;;;;;;4997632;28;20967;-74
2023/07/13 11:25:38;;;;;;;0.70;0.20;;;24.40;1.00;;;;;;5004225;28;20448;-75
2023/07/13 11:28:16;;;;;;;0.70;0.30;;;24.60;1.00;;;;;;5015717;28;20473;-76
2023/07/13 11:30:48;;;;;;;7.90;0.60;;;24.70;1.00;;;;;;5016750;28;20979;-77
2023/07/13 11:33:20;;;;;;;0.70;0.20;;;24.80;1.00;;;;;;5014069;28;21053;-76
2023/07/13 11:35:54;;;;;;;0.70;0.20;;;24.70;1.00;;;;;;5014458;28;20491;-75
2023/07/13 11:38:24;;;;;;;0.93;0.30;;;24.90;1.00;;;;;;5016394;28;20502;-75
2023/07/13 11:40:56;;;;;;;0.70;0.20;;;24.90;1.00;;;;;;5004650;28;20909;-74
2023/07/13 11:43:25;;;;;;;1.00;0.80;;;;;;;;;;5000079;28;20513;-75
2023/07/13 11:45:53;;;;;;;1.20;0.30;;;;;;;;;;4976597;28;20449;-76
2023/07/13 11:48:24;;;;;;;0.70;0.40;;;24.80;1.00;;;;;;4977092;28;20454;-74
2023/07/13 11:50:59;;;;;;;1.00;0.50;;;24.80;1.00;;;;;;4976862;28;20472;-77
2023/07/13 11:53:29;;;;;;;0.70;0.20;;;24.80;1.00;;;;;;4978334;28;20469;-74
2023/07/13 11:56:00;;;;;;;0.70;0.20;;;25.50;1.00;;;;;;4982453;28;20519;-75
2023/07/13 11:58:29;;;;;;;0.70;0.20;;;24.90;1.00;;;;;;4987195;28;20491;-76
2023/07/13 12:01:01;;;;;;;1.57;0.63;;;24.90;1.00;;;;;;4977148;28;20546;-76
2023/07/13 12:03:34;;;;;;;0.80;0.30;;;24.90;1.00;;;;;;4991690;28;20524;-75
2023/07/13 12:06:05;;;;;;;0.70;0.20;;;24.90;1.00;;;;;;5007501;28;20444;-75
2023/07/13 12:08:40;;;;;;;0.70;0.20;;;24.90;1.00;;;;;;5003225;28;20448;-75
2023/07/13 12:11:18;;;;;;;0.70;0.10;;;24.90;1.00;;;;;;4996581;28;20467;-75
2023/07/13 12:13:47;;;;;;;0.70;0.20;;;24.90;1.00;;;;;;5001627;28;20487;-74
2023/07/13 12:16:23;;;;;;;0.70;0.20;;;25.00;1.00;;;;;;4996142;28;20454;-75
2023/07/13 12:18:53;;;;;;;0.70;0.20;;;25.10;1.00;;;;;;4976998;28;20454;-76
2023/07/13 12:21:29;;;;;;;0.70;0.10;;;25.00;1.00;;;;;;4976705;28;20508;-76
2023/07/13 12:23:57;;;;;;;0.70;0.20;;;;;;;;;;4975522;28;20537;-76
2023/07/13 12:26:27;;;;;;;0.70;0.20;;;25.10;1.00;;;;;;4983564;28;20547;-75
2023/07/13 12:28:56;;;;;;;0.80;0.30;;;25.00;1.00;;;;;;4995615;28;20444;-75
2023/07/13 12:31:34;;;;;;;2.07;1.90;;;25.00;1.00;;;;;;4997201;28;20993;-76
2023/07/13 12:34:07;;;;;;;0.70;0.10;;;25.00;1.00;;;;;;4997110;28;20995;-76
2023/07/13 12:36:36;;;;;;;0.70;0.10;;;25.10;1.00;;;;;;4995906;28;20459;-75
2023/07/13 12:39:13;;;;;;;0.70;0.10;;;25.10;1.00;;;;;;4977243;28;20496;-75
2023/07/13 12:41:45;;;;;;;0.70;0.17;;;25.10;1.00;;;;;;4994276;28;20874;-75
2023/07/13 12:44:14;;;;;;;0.70;0.20;;;25.10;1.00;;;;;;4975837;28;20445;-75
2023/07/13 12:46:54;;;;;;;1.47;0.83;;;25.20;1.00;;;;;;4975742;28;20972;-74
2023/07/13 12:49:28;;;;;;;0.90;0.50;;;25.20;1.00;;;;;;4976140;28;21027;-75
2023/07/13 12:52:01;;;;;;;0.70;0.17;;;25.20;1.00;;;;;;4993702;28;20467;-76
2023/07/13 12:54:30;;;;;;;0.70;0.10;;;25.20;1.00;;;;;;4975429;28;20584;-76
2023/07/13 12:57:03;;;;;;;0.70;0.30;;;;;;;;;;4987833;28;20444;-75
2023/07/13 12:59:37;;;;;;;0.80;0.40;;;25.00;1.00;;;;;;5000041;28;20437;-76
2023/07/13 13:02:29;;;;;;;0.80;0.30;;;25.00;1.00;;;;;;4991254;28;20969;-77
2023/07/13 13:04:58;;;;;;;0.70;0.30;;;24.90;1.00;;;;;;4997400;28;20467;-77
2023/07/13 13:07:26;;;;;;;0.90;0.30;;;24.90;1.00;;;;;;4995391;28;21040;-77
2023/07/13 13:09:55;;;;;;;8.93;0.90;;;;;;;;;;4995458;28;20432;-76
2023/07/13 13:12:26;;;;;;;0.70;0.20;;;;;;;;;;5008254;28;20503;-76
2023/07/13 13:14:54;;;;;;;0.90;0.67;;;;;;;;;;5014415;28;20476;-76
2023/07/13 13:17:24;;;;;;;0.70;0.20;;;;;;;;;;5018498;28;20490;-75
2023/07/13 13:19:54;;;;;;;0.70;0.10;;;24.90;1.00;;;;;;5028496;28;20482;-76
2023/07/13 13:22:22;;;;;;;0.70;0.20;;;25.00;1.00;;;;;;5003218;28;20484;-76
2023/07/13 13:24:50;;;;;;;0.70;0.20;;;;;;;;;;5009984;28;20445;-76
2023/07/13 13:27:20;;;;;;;0.70;0.10;;;25.10;1.00;;;;;;5005713;28;20445;-76
2023/07/13 13:29:51;;;;;;;0.70;0.13;;;25.20;1.00;;;;;;5006325;28;20476;-75
2023/07/13 13:32:19;;;;;;;0.70;0.20;;;;;;;;;;4988340;28;20482;-76
2023/07/13 13:34:50;;;;;;;0.70;0.20;;;;;;;;;;4990043;28;20477;-75
2023/07/13 13:37:20;;;;;;;0.83;0.23;;;25.30;1.00;;;;;;4976619;28;20473;-75
2023/07/13 13:39:50;;;;;;;1.03;0.40;;;25.40;1.00;;;;;;4976149;28;20480;-76
2023/07/13 13:42:35;;;;;;;0.70;0.17;;;25.40;1.00;;;;;;4976016;28;21012;-76
2023/07/13 13:45:05;;;;;;;0.70;0.30;;;25.50;1.00;;;;;;4993019;28;20891;-76
2023/07/13 13:47:35;;;;;;;0.70;0.10;;;25.50;1.00;;;;;;4995226;28;20508;-76
2023/07/13 13:50:14;;;;;;;0.80;0.30;;;25.50;1.00;;;;;;4995167;28;20496;-76
2023/07/13 13:52:42;;;;;;;0.70;0.30;;;25.50;1.00;;;;;;4995520;28;20840;-76
2023/07/13 13:55:15;;;;;;;0.80;0.20;;;25.60;1.00;;;;;;4993454;28;20545;-77
2023/07/13 13:57:43;;;;;;;1.47;0.70;;;25.40;1.00;;;;;;5001151;28;20440;-77
2023/07/13 14:00:15;;;;;;;0.70;0.20;;;25.30;1.00;;;;;;4985712;28;20469;-76
2023/07/13 14:02:46;;;;;;;0.70;0.43;;;25.30;1.00;;;;;;4980416;28;20479;-75
2023/07/13 14:05:19;;;;;;;1.33;0.93;;;24.20;1.00;;;;;;4982897;28;20496;-75
2023/07/13 14:07:47;;;;;;;1.17;0.60;;;25.30;1.00;;;;;;5003578;28;20460;-77
2023/07/13 14:10:18;;;;;;;0.70;0.20;;;25.30;1.00;;;;;;5014564;28;20452;-77
2023/07/13 14:12:48;;;;;;;0.70;0.20;;;25.50;1.00;;;;;;5004701;28;21013;-77
2023/07/13 14:15:22;;;;;;;0.70;0.10;;;25.40;1.00;;;;;;4990633;28;21026;-75
2023/07/13 14:17:50;;;;;;;0.70;0.13;;;;;;;;;;5009532;28;20530;-75
2023/07/13 14:20:20;;;;;;;0.90;0.57;;;25.60;1.00;;;;;;5007375;28;20464;-77
2023/07/13 14:22:48;;;;;;;0.70;0.10;;;25.70;1.00;;;;;;5008183;28;20476;-77
2023/07/13 14:25:17;;;;;;;0.70;0.10;;;25.70;1.00;;;;;;4980372;28;20473;-76
2023/07/13 14:27:47;;;;;;;0.90;0.20;;;25.70;1.00;;;;;;4994372;28;20507;-76
2023/07/13 14:30:17;;;;;;;0.70;0.30;;;25.60;1.00;;;;;;4999411;28;20952;-76
2023/07/13 14:32:48;;;;;;;0.70;0.20;;;25.40;1.00;;;;;;5000204;28;20543;-75
2023/07/13 14:35:18;;;;;;;0.70;0.10;;;25.40;1.00;;;;;;4998077;28;20512;-76
2023/07/13 14:37:47;;;;;;;0.70;0.20;;;25.40;1.00;;;;;;5008596;28;20440;-76
2023/07/13 14:40:17;;;;;;;0.70;0.40;;;25.40;1.00;;;;;;5000994;28;20480;-77
2023/07/13 14:42:45;;;;;;;0.70;0.10;;;25.40;1.00;;;;;;5003082;28;20547;-76
2023/07/13 14:45:15;;;;;;;0.70;0.20;;;25.30;1.00;;;;;;5000806;28;20480;-76
2023/07/13 14:47:44;;;;;;;0.70;0.10;;;25.30;1.00;;;;;;5000733;28;20529;-77
2023/07/13 14:50:19;;;;;;;0.70;0.20;;;25.40;1.00;;;;;;5001156;28;20453;-76
2023/07/13 14:52:48;;;;;;;0.80;0.53;;;25.40;1.00;;;;;;5009243;28;20471;-76
2023/07/13 14:55:18;;;;;;;0.70;0.20;;;25.30;1.00;;;;;;5008604;28;20510;-77
2023/07/13 14:57:46;;;;;;;0.90;0.40;;;;;;;;;;5004635;28;20453;-77
2023/07/13 15:00:16;;;;;;;0.70;0.20;;;;;;;;;;5021219;28;20857;-75
2023/07/13 15:02:48;;;;;;;0.70;0.20;;;25.40;1.00;;;;;;5014163;28;20475;-75
2023/07/13 15:05:20;;;;;;;0.70;0.10;;;25.40;1.00;;;;;;4992469;28;20446;-76
2023/07/13 15:07:48;;;;;;;0.70;0.20;;;25.50;1.00;;;;;;4981716;28;20456;-75
2023/07/13 15:10:18;;;;;;;0.70;0.10;;;25.60;1.00;;;;;;4997609;28;20444;-76
2023/07/13 15:12:46;;;;;;;0.70;0.20;;;25.50;1.00;;;;;;5010412;28;20471;-75
2023/07/13 15:15:15;;;;;;;0.70;0.13;;;25.60;1.00;;;;;;5007383;28;20532;-75
2023/07/13 15:17:46;;;;;;;0.70;0.20;;;25.60;1.00;;;;;;4999105;28;20511;-76
2023/07/13 15:20:22;;;;;;;0.70;0.20;;;25.70;1.00;;;;;;4997457;28;20464;-75
2023/07/13 15:22:50;;;;;;;0.90;0.30;;;25.70;1.00;;;;;;5015302;28;20471;-75
2023/07/13 15:25:24;;;;;;;0.70;0.10;;;25.70;1.00;;;;;;5007207;28;20460;-75
2023/07/13 15:27:52;;;;;;;1.43;1.13;;;25.70;1.00;;;;;;4998248;28;20449;-75
2023/07/13 15:30:21;;;;;;;0.70;0.10;;;25.70;1.00;;;;;;4994585;28;20488;-76
2023/07/13 15:32:49;;;;;;;0.70;0.10;;;25.70;1.00;;;;;;5013417;28;20499;-74
2023/07/13 15:35:22;;;;;;;0.90;0.73;;;25.70;1.00;;;;;;4996211;28;20833;-76
2023/07/13 15:37:50;;;;;;;0.70;0.10;;;25.60;1.00;;;;;;4979853;28;20489;-77
2023/07/13 15:40:21;;;;;;;0.80;0.20;;;25.60;1.00;;;;;;4979775;28;20528;-76
2023/07/13 15:42:49;;;;;;;0.70;0.20;;;25.60;1.00;;;;;;4996201;28;20538;-76
2023/07/13 15:45:19;;;;;;;0.70;0.10;;;25.70;1.00;;;;;;5010346;28;20502;-75
2023/07/13 15:47:48;;;;;;;0.70;0.10;;;25.70;1.00;;;;;;5001077;28;20433;-77
2023/07/13 15:50:20;;;;;;;1.13;1.03;;;25.70;1.00;;;;;;5000477;28;20445;-77
2023/07/13 15:52:51;;;;;;;0.70;0.20;;;25.70;1.00;;;;;;4998393;28;20465;-76
2023/07/13 15:55:19;;;;;;;0.70;0.20;;;25.80;1.00;;;;;;4993870;28;20882;-74
2023/07/13 15:57:48;;;;;;;0.70;0.20;;;25.80;1.00;;;;;;5002424;28;20480;-74
2023/07/13 16:00:22;;;;;;;0.70;0.20;;;25.90;1.00;;;;;;4985535;28;20496;-74
2023/07/13 16:02:50;;;;;;;0.70;0.20;;;;;;;;;;4999063;28;20514;-75
2023/07/13 16:05:21;;;;;;;0.70;0.20;;;25.90;1.00;;;;;;5005490;28;20504;-74
2023/07/13 16:07:52;;;;;;;0.70;0.20;;;25.90;1.00;;;;;;4998260;28;20444;-73
2023/07/13 16:10:33;;;;;;;0.70;0.20;;;25.90;1.00;;;;;;4984688;28;20952;-74
2023/07/13 16:13:04;;;;;;;0.70;0.10;;;25.90;1.00;;;;;;5016957;28;20502;-72
2023/07/13 16:15:32;;;;;;;0.70;0.20;;;;;;;;;;5016641;28;20483;-73
2023/07/13 16:18:00;;;;;;;0.70;0.10;;;25.60;1.00;;;;;;5016142;28;20508;-74
2023/07/13 16:20:31;;;;;;;0.70;0.10;;;;;;;;;;4979151;28;21615;-74
2023/07/13 16:23:03;;;;;;;0.70;0.10;;;;;;;;;;4975080;28;20450;-73
2023/07/13 16:25:32;;;;;;;1.57;0.60;;;;;;;;;;4975703;28;20449;-73
2023/07/13 16:28:02;;;;;;;0.70;0.20;;;25.90;1.00;;;;;;4976055;28;20481;-73
2023/07/13 16:30:33;;;;;;;0.70;0.20;;;26.00;1.00;;;;;;4976051;28;20460;-73
2023/07/13 16:33:04;;;;;;;0.70;0.20;;;26.20;1.00;;;;;;4975850;28;20958;-74
2023/07/13 16:35:35;;;;;;;0.70;0.20;;;26.30;1.00;;;;;;4978316;28;20551;-72
2023/07/13 16:38:09;;;;;;;0.70;0.10;;;26.50;1.00;;;;;;4977179;28;20568;-72
2023/07/13 16:40:37;;;;;;;1.40;0.30;;;26.60;1.00;;;;;;4978199;28;20450;-73
2023/07/13 16:43:07;;;;;;;0.73;0.30;;;26.70;1.00;;;;;;4974989;28;20452;-71
2023/07/13 16:45:36;;;;;;;0.70;0.20;;;;;;;;;;4975738;28;20466;-73
2023/07/13 16:48:14;;;;;;;0.70;0.10;;;26.90;1.00;;;;;;4975097;28;20530;-73
2023/07/13 16:50:45;;;;;;;2.20;0.30;;;27.00;1.00;;;;;;4976047;28;20538;-73
2023/07/13 16:53:19;;;;;;;0.70;0.20;;;26.90;1.00;;;;;;4976881;28;20461;-75
2023/07/13 16:55:47;;;;;;;1.53;0.37;;;27.10;1.00;;;;;;4975205;28;20477;-72
2023/07/13 16:58:15;;;;;;;0.70;0.20;;;27.20;1.00;;;;;;4976316;28;20479;-74
2023/07/13 17:00:44;;;;;;;1.00;0.23;;;27.40;1.00;;;;;;4977373;28;20922;-75
2023/07/13 17:03:12;;;;;;;0.70;0.10;;;27.10;1.00;;;;;;4978414;28;20481;-73
2023/07/13 17:05:43;;;;;;;0.70;0.20;;;27.00;1.00;;;;;;4981341;28;20448;-73
2023/07/13 17:08:20;;;;;;;0.70;0.17;;;27.00;1.00;;;;;;4995438;28;20448;-73
2023/07/13 17:10:49;;;;;;;1.20;0.87;;;27.00;1.00;;;;;;5001565;28;20469;-75
2023/07/13 17:13:19;;;;;;;0.70;0.20;;;27.00;1.00;;;;;;4994201;28;20496;-74
2023/07/13 17:15:53;;;;;;;1.77;0.70;;;27.10;1.00;;;;;;4996304;28;20527;-73
2023/07/13 17:18:21;;;;;;;0.70;0.30;;;27.20;1.00;;;;;;4994282;28;20527;-72
2023/07/13 17:20:49;;;;;;;0.90;0.20;;;27.20;1.00;;;;;;4981918;28;20508;-73
2023/07/13 17:23:23;;;;;;;0.70;0.20;;;27.20;1.00;;;;;;4973474;28;20485;-71
2023/07/13 17:25:53;;;;;;;0.70;0.20;;;27.40;1.00;;;;;;4973637;28;20536;-71
2023/07/13 17:28:22;;;;;;;0.70;0.20;;;27.60;1.00;;;;;;4973837;28;20445;-73
2023/07/13 17:30:52;;;;;;;1.77;0.43;;;27.50;1.00;;;;;;4985866;28;20544;-72